Glanamman, United Kingdom
Current Conditions -  °F | °C
As of 9:50 AM on Tuesday 27 Jan 2015 (Local Time) from EGOP Reporting Station
Overcast Overcast  
Wind Chill: 40°   Ceiling: 2100
Heat Index: 45°   Visibility: 6mi
Dew Point: 39°   Wind: 8mph
Humidity: 81%   Direction: 300°WNW
Pressure: 30.42"   Gusts: NA
Location:  51.8°N, 3.93°W
Report Text: EGOP 270950Z 30007KT 9999 OVC021 07/04 Q1030 WHT
Loading
Personal Weather Stations






























Interactive Weather Map New forecast layout! Learn more

10-Day Weather Forecast

Advertisements
Track Severe Weather on mobile